Flight Track Log - Related Links

Times and Time Zones

All times are in EDT time to prevent confusion due to time zone crossing. See the TSU216 flight status page for this flight to view local times or setup timezone preferences in your user account.

Time Position Orientation Groundspeed Altitude Reporting Facility
EDT Latitude Longitude Course Direction KTS MPH feet Rate Location/Type
Thu 02:09:26 AM 41.6333 -83.8681 15° North 280 322 4,400  Level Cleveland Center
Thu 02:10:08 AM 41.6897 -83.8431 18° North 336 387 5,100 840 Climbing Cleveland Center
Thu 02:10:16 AM 41.6950 -83.8403 21° North 309 356 5,100 -98 Level Cleveland Center
Thu 02:11:09 AM 41.7725 -83.8075 18° North 326 375 5,000 -100 Descending Cleveland Center
Thu 02:11:16 AM 41.7789 -83.8036 24° Northeast 316 364 5,000  Level Cleveland Center
Thu 02:12:09 AM 41.8550 -83.7719 17° North 310 357 5,000  Level Cleveland Center
Thu 02:12:16 AM 41.8614 -83.7667 32° Northeast 314 361 5,000  Level Cleveland Center
Thu 02:13:10 AM 41.9333 -83.7386 16° North 291 335 5,000  Level Cleveland Center
Thu 02:13:16 AM 41.9389 -83.7342 31° Northeast 298 343 5,000  Level Cleveland Center
Thu 02:14:00 AM 42.0046 -83.6594 15° North  Level Estimated
Thu 02:14:11 AM 42.0156 -83.7058 15° North 285 328 5,000  Level Cleveland Center
Thu 02:14:16 AM 42.0147 -83.7025 109° East 289 333 5,000  Level Cleveland Center
Thu 02:15:11 AM 42.0917 -83.6717 17° North 292 336 5,000  Level Cleveland Center
Thu 02:15:16 AM 42.0925 -83.6692 66° East 290 334 5,000  Level Cleveland Center
Thu 02:16:12 AM 42.1742 -83.6358 17° North 309 356 5,000  Level Cleveland Center
Thu 02:16:17 AM 42.1744 -83.6336 80° East 302 348 5,000  Level Cleveland Center
Thu 02:17:12 AM 42.2608 -83.6006 16° North 322 371 5,000  Level Cleveland Center
Thu 02:17:17 AM 42.2600 -83.5975 110° East 310 357 5,000 -197 Level Cleveland Center
Thu 02:18:13 AM 42.3433 -83.5672 15° North 305 351 4,800 -200 Descending Cleveland Center
Thu 02:18:17 AM 42.3450 -83.5653 41° Northeast 308 354 4,800 -1,279 Level Cleveland Center
Thu 02:19:14 AM 42.4203 -83.5728 356° North 274 315 3,500 -1,400 Descending Cleveland Center
Thu 02:19:17 AM 42.4231 -83.5703 34° Northeast 290 334 3,400 -500 Descending Cleveland Center
Thu 02:20:14 AM 42.4875 -83.5994 342° North 233 268 3,000 -400 Descending Cleveland Center
Thu 02:20:17 AM 42.4903 -83.5983 16° North 267 307 3,000  Level Cleveland Center
Thu 02:21:15 AM 42.5403 -83.6186 343° North 184 212 3,000  Level Cleveland Center
Thu 02:21:17 AM 42.5425 -83.6192 350° North 226 260 3,000  Level Cleveland Center
Thu 02:22:15 AM 42.5911 -83.6403 342° North 184 212 3,000  Level Cleveland Center
Thu 02:22:17 AM 42.5911 -83.6408 270° West 199 229 3,000 98 Level Cleveland Center
Thu 02:23:16 AM 42.6403 -83.6531 350° North 197 227 3,100 100 Climbing Cleveland Center
Thu 02:23:17 AM 42.6428 -83.6492 49° Northeast 216 249 3,100 -98 Level Cleveland Center
Thu 02:24:17 AM 42.6603 -83.5878 69° East 173 199 3,000 -98 Descending Cleveland Center
Thu 02:24:18 AM 42.6586 -83.5864 148° Southeast 196 226 3,000 -600 Level Cleveland Center
Thu 02:25:17 AM 42.6611 -83.5228 87° East 163 188 2,400 -600 Descending Cleveland Center
Thu 02:25:18 AM 42.6594 -83.5242 212° Southwest 177 204 2,400 -787 Level Cleveland Center
Thu 02:26:18 AM 42.6633 -83.4692 84° East 139 160 1,600 -550 Descending Cleveland Center
Thu 02:27:18 AM 42.6636 -83.4192 90° East 156 180 1,300 -492 Descending Cleveland Center
Thu 02:27:19 AM 42.6642 -83.4322 273° West 133 153 1,100 -12,000 Descending Cleveland Center

Login

Don't have an account? Register now (free) for customized features, flight alerts, and more!